createdAt,value
2022-10-15T00:04:19.519Z,0.90
2022-10-15T00:06:46.879Z,0.90
2022-10-15T00:09:13.809Z,1.07
2022-10-15T00:11:40.792Z,1.43
2022-10-15T00:14:08.012Z,0.93
2022-10-15T00:16:35.250Z,1.20
2022-10-15T00:19:02.492Z,1.47
2022-10-15T00:26:35.442Z,1.00
2022-10-15T00:29:03.700Z,0.80
2022-10-15T00:31:32.584Z,0.77
2022-10-15T00:34:01.064Z,0.80
2022-10-15T00:36:30.780Z,0.70
2022-10-15T00:38:58.121Z,0.70
2022-10-15T00:41:29.639Z,0.80
2022-10-15T00:49:07.950Z,0.47
2022-10-15T00:51:42.390Z,0.50
2022-10-15T00:54:11.233Z,0.40
2022-10-15T00:56:39.920Z,0.40
2022-10-15T00:59:07.252Z,0.70
2022-10-15T01:01:34.579Z,0.80
2022-10-15T01:04:04.943Z,0.70
2022-10-15T01:11:52.951Z,0.70
2022-10-15T01:14:36.499Z,0.50
2022-10-15T01:17:09.622Z,0.63
2022-10-15T01:20:04.532Z,0.53
2022-10-15T01:22:46.830Z,0.30
2022-10-15T01:25:29.622Z,0.40
2022-10-15T01:28:23.994Z,0.53
2022-10-15T01:36:06.407Z,0.50
2022-10-15T01:38:46.893Z,0.67
2022-10-15T01:41:19.446Z,0.40
2022-10-15T01:43:53.213Z,0.60
2022-10-15T01:46:27.544Z,0.40
2022-10-15T01:48:59.180Z,0.50
2022-10-15T01:51:31.389Z,0.47
2022-10-15T02:09:07.921Z,0.53
2022-10-15T02:11:48.411Z,0.30
2022-10-15T02:14:22.633Z,0.20
2022-10-15T02:16:58.996Z,0.30
2022-10-15T02:19:32.580Z,0.20
2022-10-15T02:22:06.553Z,0.30
2022-10-15T02:27:14.927Z,0.50
2022-10-15T02:29:45.030Z,0.20
2022-10-15T02:32:13.818Z,0.27
2022-10-15T02:34:41.575Z,0.30
2022-10-15T02:37:13.119Z,0.30
2022-10-15T02:39:40.828Z,0.20
2022-10-15T02:42:08.796Z,0.10
2022-10-15T02:47:19.729Z,0.30
2022-10-15T02:49:48.239Z,0.27
2022-10-15T02:52:15.559Z,0.20
2022-10-15T02:54:42.918Z,0.50
2022-10-15T02:57:13.759Z,0.57
2022-10-15T02:59:41.860Z,0.40
2022-10-15T03:02:09.309Z,1.00
2022-10-15T03:09:14.814Z,0.63
2022-10-15T03:11:42.125Z,0.70
2022-10-15T03:14:09.197Z,0.53
2022-10-15T03:16:36.437Z,0.93
2022-10-15T03:19:03.663Z,1.10
2022-10-15T03:21:32.703Z,0.70
2022-10-15T03:24:01.764Z,0.77
2022-10-15T03:30:51.435Z,1.77
2022-10-15T03:33:20.855Z,5.73
2022-10-15T03:35:51.359Z,3.00
2022-10-15T03:38:18.576Z,2.63
2022-10-15T03:40:45.951Z,4.30
2022-10-15T03:43:13.278Z,3.77
2022-10-15T03:45:40.866Z,7.67
2022-10-15T04:05:42.845Z,11.17
2022-10-15T04:08:10.275Z,12.23
2022-10-15T04:10:38.135Z,8.53
2022-10-15T04:13:05.343Z,7.63
2022-10-15T04:15:32.758Z,15.47
2022-10-15T04:18:00.514Z,10.33
2022-10-15T04:20:28.505Z,16.73
2022-10-15T04:25:36.976Z,11.00
2022-10-15T04:28:05.096Z,12.40
2022-10-15T04:30:32.838Z,10.63
2022-10-15T04:33:00.115Z,8.00
2022-10-15T04:35:31.826Z,12.83
2022-10-15T04:37:59.153Z,6.73
2022-10-15T04:40:27.127Z,10.17
2022-10-15T04:42:55.815Z,11.87
2022-10-15T04:50:30.006Z,3.37
2022-10-15T04:52:57.355Z,10.53
2022-10-15T04:55:25.156Z,5.33
2022-10-15T04:57:54.825Z,5.77
2022-10-15T05:00:24.323Z,8.37
2022-10-15T05:02:56.578Z,6.37
2022-10-15T05:05:23.944Z,6.70
2022-10-15T05:07:52.358Z,5.97
2022-10-15T05:15:29.910Z,4.90
2022-10-15T05:17:57.665Z,2.93
2022-10-15T05:20:25.266Z,6.20
2022-10-15T05:22:53.837Z,4.17
2022-10-15T05:25:21.574Z,3.37
2022-10-15T05:27:49.269Z,5.27
2022-10-15T05:30:17.093Z,4.03
2022-10-15T06:27:17.440Z,3.33
2022-10-15T08:27:04.747Z,1.50
2022-10-15T08:29:32.204Z,1.07
2022-10-15T08:31:59.871Z,0.93
2022-10-15T08:34:27.711Z,1.17
2022-10-15T08:36:55.135Z,0.93
2022-10-15T08:39:22.664Z,1.30
2022-10-15T08:41:56.217Z,1.00
2022-10-15T08:44:46.687Z,0.70
2022-10-15T08:52:23.759Z,0.70
2022-10-15T08:54:56.079Z,0.60
2022-10-15T08:57:37.152Z,0.73
2022-10-15T09:00:25.476Z,0.70
2022-10-15T09:03:03.075Z,0.70
2022-10-15T09:05:40.513Z,0.60
2022-10-15T09:08:19.166Z,0.50
2022-10-15T09:15:57.599Z,0.43
2022-10-15T09:18:30.069Z,0.50
2022-10-15T09:21:02.234Z,0.60
2022-10-15T09:23:30.030Z,0.60
2022-10-15T09:26:07.348Z,0.50
2022-10-15T09:28:44.171Z,0.47
2022-10-15T09:31:18.424Z,0.77
2022-10-15T09:39:04.413Z,0.90
2022-10-15T09:41:48.245Z,1.30
2022-10-15T09:44:21.139Z,1.00
2022-10-15T09:46:54.748Z,1.30
2022-10-15T09:49:28.545Z,1.20
2022-10-15T09:52:07.224Z,1.23
2022-10-15T09:54:43.573Z,1.83
2022-10-15T09:57:14.006Z,1.60
2022-10-15T10:04:52.486Z,2.10
2022-10-15T10:07:32.559Z,1.83
2022-10-15T10:10:05.608Z,1.30
2022-10-15T10:12:38.433Z,1.17
2022-10-15T10:15:27.229Z,1.47
2022-10-15T10:17:59.688Z,1.10
2022-10-15T10:20:33.845Z,1.13
2022-10-15T10:28:27.989Z,0.70
2022-10-15T10:31:09.416Z,0.80
2022-10-15T10:33:44.495Z,0.60
2022-10-15T10:36:23.906Z,0.93
2022-10-15T10:39:03.475Z,0.70
2022-10-15T10:41:53.336Z,0.80
2022-10-15T10:44:37.905Z,0.90
2022-10-15T10:49:50.075Z,0.80
2022-10-15T10:52:28.331Z,0.90
2022-10-15T10:55:01.563Z,0.73
2022-10-15T10:57:44.453Z,1.00
2022-10-15T11:00:16.762Z,0.90
2022-10-15T11:02:44.821Z,1.23
2022-10-15T11:05:14.105Z,1.10
2022-10-15T11:13:06.167Z,1.40
2022-10-15T11:15:44.536Z,1.37
2022-10-15T11:18:29.626Z,1.30
2022-10-15T11:21:12.679Z,1.43
2022-10-15T11:23:57.708Z,1.30
2022-10-15T11:26:52.147Z,1.50
2022-10-15T11:29:36.254Z,1.37
2022-10-15T11:37:26.914Z,1.37
2022-10-15T11:40:17.669Z,1.30
2022-10-15T11:42:54.565Z,1.67
2022-10-15T11:45:48.114Z,1.23
2022-10-15T11:48:26.736Z,1.20
2022-10-15T11:51:00.686Z,1.30
2022-10-15T11:53:50.474Z,1.57
2022-10-15T12:01:25.048Z,1.83
2022-10-15T12:03:57.791Z,1.43
2022-10-15T12:06:37.947Z,1.20
2022-10-15T12:09:06.874Z,2.10
2022-10-15T12:11:46.466Z,1.57
2022-10-15T12:14:30.137Z,2.10
2022-10-15T12:17:05.155Z,1.77
2022-10-15T12:24:59.657Z,1.47
2022-10-15T12:27:40.573Z,1.60
2022-10-15T12:30:26.506Z,2.00
2022-10-15T12:32:56.754Z,1.80
2022-10-15T12:35:35.428Z,1.57
2022-10-15T12:38:22.056Z,1.43
2022-10-15T12:41:01.025Z,1.20
2022-10-15T12:48:46.317Z,1.20
2022-10-15T12:51:41.996Z,1.30
2022-10-15T12:54:37.792Z,1.10
2022-10-15T12:57:45.916Z,1.03
2022-10-15T13:00:32.590Z,1.17
2022-10-15T13:03:25.350Z,1.17
2022-10-15T13:05:58.114Z,0.80
2022-10-15T13:13:39.313Z,0.90
2022-10-15T13:16:16.336Z,1.00
2022-10-15T13:18:52.785Z,1.10
2022-10-15T13:21:20.395Z,0.97
2022-10-15T13:23:48.746Z,1.00
2022-10-15T13:26:22.664Z,1.03
2022-10-15T13:29:04.591Z,0.90
2022-10-15T13:34:43.756Z,1.00
2022-10-15T13:37:19.979Z,0.70
2022-10-15T13:39:53.593Z,0.87
2022-10-15T13:42:24.295Z,0.77
2022-10-15T13:45:02.187Z,0.77
2022-10-15T13:47:36.484Z,0.60
2022-10-15T13:50:27.973Z,0.63
2022-10-15T13:58:34.762Z,0.90
2022-10-15T14:01:11.835Z,0.60
2022-10-15T14:03:50.341Z,0.50
2022-10-15T14:06:21.522Z,0.60
2022-10-15T14:08:53.803Z,0.63
2022-10-15T14:11:24.436Z,0.70
2022-10-15T14:13:59.433Z,0.60
2022-10-15T14:22:28.594Z,0.60
2022-10-15T14:25:03.073Z,0.70
2022-10-15T14:27:34.556Z,0.70
2022-10-15T14:30:21.007Z,0.80
2022-10-15T14:33:02.465Z,0.47
2022-10-15T14:35:39.805Z,0.87
2022-10-15T14:46:18.243Z,0.73
2022-10-15T14:48:49.396Z,0.40
2022-10-15T14:51:25.677Z,0.87
2022-10-15T14:53:56.124Z,0.40
2022-10-15T14:56:31.404Z,0.50
2022-10-15T14:59:02.075Z,0.30
2022-10-15T15:01:50.876Z,0.50
2022-10-15T15:09:30.328Z,0.47
2022-10-15T15:11:58.846Z,0.57
2022-10-15T15:14:30.865Z,0.50
2022-10-15T15:17:03.335Z,0.50
2022-10-15T15:19:33.750Z,0.20
2022-10-15T15:22:09.597Z,0.20
2022-10-15T15:24:43.220Z,0.40
2022-10-15T15:32:28.801Z,0.23
2022-10-15T15:34:59.835Z,0.27
2022-10-15T15:37:31.564Z,0.27
2022-10-15T15:40:01.725Z,0.37
2022-10-15T15:42:32.297Z,0.40
2022-10-15T15:45:01.286Z,0.20
2022-10-15T15:47:34.640Z,0.37
2022-10-15T15:55:18.974Z,0.30
2022-10-15T15:57:47.847Z,0.47
2022-10-15T16:00:20.125Z,0.30
2022-10-15T16:02:51.178Z,0.30
2022-10-15T16:05:20.801Z,0.30
2022-10-15T16:07:49.963Z,0.27
2022-10-15T16:10:20.453Z,0.30
2022-10-15T16:18:25.244Z,0.77
2022-10-15T16:20:53.185Z,0.50
2022-10-15T16:23:23.567Z,0.40
2022-10-15T16:25:54.369Z,0.30
2022-10-15T16:28:30.570Z,0.40
2022-10-15T16:31:17.879Z,6.37
2022-10-15T16:33:49.095Z,0.50
2022-10-15T16:41:03.494Z,0.43
2022-10-15T16:43:36.855Z,0.33
2022-10-15T16:46:08.795Z,0.57
2022-10-15T16:48:38.685Z,0.40
2022-10-15T16:51:12.931Z,1.47
2022-10-15T16:53:46.333Z,0.50
2022-10-15T16:56:19.891Z,0.40
2022-10-15T17:06:09.570Z,0.47
2022-10-15T17:08:51.252Z,0.40
2022-10-15T17:11:41.752Z,0.40
2022-10-15T17:14:15.493Z,0.40
2022-10-15T17:16:46.346Z,0.40
2022-10-15T17:19:34.175Z,0.60
2022-10-15T17:22:15.107Z,0.57
2022-10-15T17:24:54.689Z,0.90
2022-10-15T17:30:05.007Z,0.80
2022-10-15T17:32:36.074Z,1.40
2022-10-15T17:35:04.881Z,0.60
2022-10-15T17:40:07.924Z,0.70
2022-10-15T17:42:38.354Z,0.57
2022-10-15T17:45:13.573Z,0.60
2022-10-15T17:47:42.283Z,0.43
2022-10-15T17:55:54.991Z,0.70
2022-10-15T17:58:23.156Z,0.60
2022-10-15T18:00:54.846Z,0.40
2022-10-15T18:03:24.587Z,0.87
2022-10-15T18:05:55.378Z,0.50
2022-10-15T18:08:29.494Z,0.77
2022-10-15T18:11:01.133Z,0.40
2022-10-15T18:18:39.804Z,0.73
2022-10-15T18:21:19.706Z,0.67
2022-10-15T18:23:51.878Z,0.50
2022-10-15T18:26:27.553Z,0.30
2022-10-15T18:29:00.569Z,0.40
2022-10-15T18:31:34.845Z,0.50
2022-10-15T18:34:10.082Z,0.50
2022-10-15T18:36:45.195Z,0.40
2022-10-15T18:44:23.026Z,0.37
2022-10-15T18:46:54.128Z,0.30
2022-10-15T18:49:22.146Z,0.40
2022-10-15T18:51:54.606Z,0.33
2022-10-15T18:54:26.196Z,0.60
2022-10-15T18:56:54.151Z,0.60
2022-10-15T18:59:27.622Z,0.40
2022-10-15T19:07:06.156Z,0.40
2022-10-15T19:09:44.115Z,0.67
2022-10-15T19:12:12.156Z,0.30
2022-10-15T19:14:43.796Z,0.40
2022-10-15T19:17:12.928Z,0.53
2022-10-15T19:19:41.906Z,0.30
2022-10-15T19:22:16.552Z,0.40
2022-10-15T19:24:51.760Z,0.40
2022-10-15T19:32:15.514Z,0.80
2022-10-15T19:34:46.116Z,0.40
2022-10-15T19:37:20.577Z,0.40
2022-10-15T19:39:48.875Z,0.40
2022-10-15T19:42:18.455Z,0.40
2022-10-15T19:44:49.612Z,0.30
2022-10-15T19:47:21.895Z,0.40
2022-10-15T19:54:54.337Z,0.40
2022-10-15T19:57:24.096Z,0.33
2022-10-15T19:59:53.779Z,1.37
2022-10-15T20:02:23.806Z,0.30
2022-10-15T20:04:56.686Z,0.47
2022-10-15T20:07:25.525Z,0.43
2022-10-15T20:10:01.595Z,0.40
2022-10-15T20:17:40.966Z,0.40
2022-10-15T20:20:09.197Z,0.50
2022-10-15T20:22:38.035Z,0.50
2022-10-15T20:25:10.512Z,0.50
2022-10-15T20:27:41.309Z,0.40
2022-10-15T20:30:11.010Z,0.50
2022-10-15T20:32:41.542Z,0.50
2022-10-15T20:40:22.144Z,0.60
2022-10-15T20:42:50.384Z,0.60
2022-10-15T20:45:19.352Z,0.50
2022-10-15T20:47:55.393Z,0.50
2022-10-15T20:50:27.255Z,0.60
2022-10-15T20:52:57.405Z,0.40
2022-10-15T20:55:27.411Z,0.93
2022-10-15T21:03:02.973Z,0.67
2022-10-15T21:05:30.686Z,0.57
2022-10-15T21:07:59.175Z,0.80
2022-10-15T21:10:29.553Z,0.73
2022-10-15T21:12:57.903Z,0.73
2022-10-15T21:15:26.031Z,0.60
2022-10-15T21:17:53.386Z,0.63
2022-10-15T21:25:26.426Z,1.13
2022-10-15T21:27:58.856Z,1.00
2022-10-15T21:30:27.093Z,0.83
2022-10-15T21:32:55.877Z,0.90
2022-10-15T21:35:23.788Z,0.90
2022-10-15T21:37:52.286Z,0.80
2022-10-15T21:40:22.234Z,0.97
2022-10-15T21:42:53.235Z,0.80
2022-10-15T21:52:46.564Z,0.67
2022-10-15T21:55:13.882Z,1.10
2022-10-15T21:57:44.507Z,1.07
2022-10-15T22:00:15.318Z,0.70
2022-10-15T22:02:43.024Z,0.70
2022-10-15T22:05:10.214Z,0.83
2022-10-15T22:07:39.681Z,0.97
2022-10-15T22:15:13.305Z,0.80
2022-10-15T22:17:40.547Z,0.90
2022-10-15T22:20:12.668Z,0.70
2022-10-15T22:22:41.115Z,0.90
2022-10-15T22:25:11.194Z,0.73
2022-10-15T22:27:38.915Z,0.60
2022-10-15T22:30:07.822Z,0.67
2022-10-15T22:32:36.024Z,1.10
2022-10-15T22:40:08.954Z,1.00
2022-10-15T22:42:38.663Z,0.70
2022-10-15T22:45:08.245Z,0.87
2022-10-15T22:47:35.887Z,1.10
2022-10-15T22:50:03.706Z,0.93
2022-10-15T22:52:35.672Z,1.07
2022-10-15T22:55:03.969Z,0.80
2022-10-15T22:57:38.152Z,0.90
2022-10-15T23:05:11.453Z,1.00
2022-10-15T23:07:39.215Z,0.80
2022-10-15T23:10:08.646Z,0.73
2022-10-15T23:12:37.447Z,0.90
2022-10-15T23:15:05.906Z,0.77
2022-10-15T23:17:33.950Z,1.07
2022-10-15T23:20:01.360Z,1.00
2022-10-15T23:22:30.065Z,1.00
2022-10-15T23:40:28.541Z,0.90
2022-10-15T23:42:59.263Z,1.20
2022-10-15T23:45:27.953Z,0.90
2022-10-15T23:47:56.255Z,1.03
2022-10-15T23:50:24.284Z,0.90
2022-10-15T23:52:53.858Z,1.30
2022-10-15T23:55:24.733Z,1.03
